createdAt,value
2022-07-26T00:01:03.348Z,67.65
2022-07-26T00:03:06.303Z,69.41
2022-07-26T00:05:10.340Z,74.57
2022-07-26T00:07:13.161Z,74.27
2022-07-26T00:09:16.070Z,72.23
2022-07-26T00:11:21.359Z,74.33
2022-07-26T00:13:24.398Z,72.96
2022-07-26T00:15:32.115Z,73.42
2022-07-26T00:17:35.054Z,75.04
2022-07-26T00:19:37.950Z,77.19
2022-07-26T00:21:41.183Z,75.88
2022-07-26T00:23:44.101Z,76.44
2022-07-26T00:25:47.450Z,79.07
2022-07-26T00:27:52.142Z,76.62
2022-07-26T00:29:54.942Z,75.79
2022-07-26T00:31:57.845Z,77.35
2022-07-26T00:34:00.738Z,78.70
2022-07-26T00:36:03.631Z,78.74
2022-07-26T00:38:06.732Z,77.11
2022-07-26T00:40:12.850Z,74.94
2022-07-26T00:42:15.662Z,77.21
2022-07-26T00:44:19.832Z,76.99
2022-07-26T00:46:22.674Z,77.80
2022-07-26T00:48:25.818Z,77.97
2022-07-26T00:50:28.740Z,80.96
2022-07-26T00:52:31.598Z,79.85
2022-07-26T00:54:34.668Z,81.34
2022-07-26T00:56:37.487Z,80.72
2022-07-26T00:58:40.276Z,81.02
2022-07-26T01:00:45.755Z,82.28
2022-07-26T01:02:49.205Z,82.74
2022-07-26T01:04:52.539Z,81.30
2022-07-26T01:06:56.172Z,80.83
2022-07-26T01:08:59.227Z,79.56
2022-07-26T01:11:04.048Z,79.43
2022-07-26T01:13:07.185Z,82.02
2022-07-26T01:15:11.990Z,80.46
2022-07-26T01:17:16.591Z,82.29
2022-07-26T01:19:19.616Z,81.70
2022-07-26T01:21:22.952Z,83.03
2022-07-26T01:23:27.600Z,82.87
2022-07-26T01:25:31.782Z,81.76
2022-07-26T01:27:39.245Z,79.31
2022-07-26T01:29:42.361Z,76.94
2022-07-26T01:31:45.163Z,78.92
2022-07-26T01:33:48.009Z,81.70
2022-07-26T01:35:50.847Z,81.26
2022-07-26T01:37:54.158Z,80.83
2022-07-26T01:39:58.336Z,78.78
2022-07-26T01:42:01.240Z,78.66
2022-07-26T01:44:04.635Z,79.61
2022-07-26T01:46:13.711Z,77.65
2022-07-26T01:48:19.307Z,77.79
2022-07-26T01:50:23.530Z,79.04
2022-07-26T01:52:27.687Z,80.17
2022-07-26T01:54:30.885Z,79.27
2022-07-26T01:56:35.341Z,80.03
2022-07-26T01:58:38.234Z,81.53
2022-07-26T02:00:41.476Z,82.32
2022-07-26T02:02:45.948Z,82.17
2022-07-26T02:05:02.081Z,81.05
2022-07-26T02:07:08.620Z,84.17
2022-07-26T02:09:16.121Z,82.66
2022-07-26T02:11:19.957Z,79.59
2022-07-26T02:13:24.218Z,81.76
2022-07-26T02:15:27.430Z,82.19
2022-07-26T02:17:30.434Z,81.28
2022-07-26T02:19:33.590Z,78.25
2022-07-26T02:21:36.518Z,82.86
2022-07-26T02:23:41.224Z,82.21
2022-07-26T02:25:45.211Z,82.13
2022-07-26T02:27:48.103Z,82.39
2022-07-26T02:29:52.517Z,81.72
2022-07-26T02:31:56.691Z,81.11
2022-07-26T02:33:59.545Z,80.10
2022-07-26T02:36:02.417Z,80.53
2022-07-26T02:38:07.024Z,80.61
2022-07-26T02:40:16.878Z,87.73
2022-07-26T02:42:21.806Z,86.87
2022-07-26T02:44:25.077Z,86.50
2022-07-26T02:46:29.439Z,88.62
2022-07-26T02:48:32.748Z,87.38
2022-07-26T02:50:39.182Z,87.86
2022-07-26T02:52:42.216Z,90.55
2022-07-26T02:54:45.547Z,89.72
2022-07-26T02:56:48.339Z,87.56
2022-07-26T02:58:51.142Z,88.64
2022-07-26T03:00:54.247Z,88.52
2022-07-26T03:02:58.950Z,86.00
2022-07-26T03:05:02.348Z,86.38
2022-07-26T03:07:05.155Z,82.75
2022-07-26T03:09:07.989Z,85.32
2022-07-26T03:11:12.246Z,89.27
2022-07-26T03:13:15.713Z,87.12
2022-07-26T03:15:18.574Z,85.86
2022-07-26T03:17:21.373Z,86.63
2022-07-26T03:19:25.635Z,86.91
2022-07-26T03:21:28.961Z,87.51
2022-07-26T03:23:34.463Z,89.39
2022-07-26T03:25:37.811Z,91.99
2022-07-26T03:27:40.775Z,93.52
2022-07-26T03:29:43.606Z,91.66
2022-07-26T03:31:46.376Z,88.58
2022-07-26T03:33:49.228Z,87.22
2022-07-26T03:35:53.428Z,86.79
2022-07-26T03:37:57.634Z,89.59
2022-07-26T03:40:00.610Z,91.81
2022-07-26T03:42:03.495Z,89.22
2022-07-26T03:44:07.321Z,87.19
2022-07-26T03:46:10.535Z,86.78
2022-07-26T03:48:13.458Z,85.03
2022-07-26T03:50:16.519Z,83.90
2022-07-26T03:52:23.030Z,85.93
2022-07-26T03:54:25.871Z,89.35
2022-07-26T03:56:32.057Z,86.71
2022-07-26T03:58:34.966Z,86.06
2022-07-26T04:00:37.801Z,86.93
2022-07-26T04:02:40.793Z,86.50
2022-07-26T04:04:43.729Z,87.64
2022-07-26T04:06:49.429Z,88.06
2022-07-26T04:08:54.993Z,86.59
2022-07-26T04:10:57.835Z,88.52
2022-07-26T04:13:00.695Z,94.15
2022-07-26T04:15:03.671Z,96.51
2022-07-26T04:17:06.746Z,99.05
2022-07-26T04:19:09.625Z,97.08
2022-07-26T04:21:12.486Z,100.00
2022-07-26T04:23:15.567Z,100.00
2022-07-26T04:25:19.873Z,100.00
2022-07-26T04:27:22.711Z,100.00
2022-07-26T04:29:25.510Z,100.00
2022-07-26T04:31:28.439Z,100.00
2022-07-26T04:33:39.418Z,100.00
2022-07-26T04:35:42.351Z,100.00
2022-07-26T04:37:46.669Z,100.00
2022-07-26T04:39:54.797Z,100.00
2022-07-26T04:41:59.192Z,100.00
2022-07-26T04:44:02.026Z,100.00
2022-07-26T04:46:05.083Z,100.00
2022-07-26T04:48:08.482Z,100.00
2022-07-26T04:50:11.929Z,100.00
2022-07-26T04:52:14.811Z,100.00
2022-07-26T04:54:20.675Z,100.00
2022-07-26T04:56:23.607Z,100.00
2022-07-26T04:58:28.434Z,100.00
2022-07-26T05:00:31.362Z,100.00
2022-07-26T05:02:34.257Z,100.00
2022-07-26T05:04:37.113Z,100.00
2022-07-26T05:06:39.914Z,100.00
2022-07-26T05:08:43.375Z,100.00
2022-07-26T05:10:47.780Z,100.00
2022-07-26T05:12:52.229Z,100.00
2022-07-26T05:14:56.308Z,100.00
2022-07-26T05:16:59.135Z,100.00
2022-07-26T05:19:12.003Z,100.00
2022-07-26T05:21:14.814Z,100.00
2022-07-26T05:23:17.718Z,100.00
2022-07-26T05:25:20.738Z,100.00
2022-07-26T05:27:23.513Z,100.00
2022-07-26T05:29:26.950Z,100.00
2022-07-26T05:31:31.265Z,100.00
2022-07-26T05:33:34.159Z,100.00
2022-07-26T05:35:37.036Z,100.00
2022-07-26T05:37:40.361Z,100.00
2022-07-26T05:39:43.452Z,100.00
2022-07-26T05:41:46.331Z,100.00
2022-07-26T05:43:49.329Z,100.00
2022-07-26T05:45:52.300Z,100.00
2022-07-26T05:47:56.671Z,100.00
2022-07-26T05:49:59.465Z,100.00
2022-07-26T05:52:02.270Z,100.00
2022-07-26T05:54:05.525Z,100.00
2022-07-26T05:56:08.868Z,100.00
2022-07-26T05:58:11.752Z,100.00
2022-07-26T06:00:15.276Z,100.00
2022-07-26T06:02:18.194Z,100.00
2022-07-26T06:04:22.398Z,97.94
2022-07-26T06:06:28.117Z,95.32
2022-07-26T06:08:31.074Z,95.16
2022-07-26T06:10:33.878Z,96.25
2022-07-26T06:12:36.737Z,94.48
2022-07-26T06:14:39.728Z,93.14
2022-07-26T06:16:42.645Z,91.68
2022-07-26T06:18:45.620Z,91.82
2022-07-26T06:20:50.179Z,89.77
2022-07-26T06:22:53.005Z,88.97
2022-07-26T06:24:55.743Z,87.81
2022-07-26T06:27:05.380Z,87.46
2022-07-26T06:29:08.546Z,86.93
2022-07-26T06:31:11.720Z,84.49
2022-07-26T06:33:14.867Z,83.50
2022-07-26T06:35:17.681Z,83.74
2022-07-26T06:37:23.403Z,79.61
2022-07-26T06:39:26.236Z,78.12
2022-07-26T06:41:29.291Z,75.10
2022-07-26T06:43:32.347Z,72.33
2022-07-26T06:45:35.237Z,72.53
2022-07-26T06:47:38.140Z,71.54
2022-07-26T06:49:40.961Z,70.80
2022-07-26T06:51:43.741Z,68.43
2022-07-26T06:53:48.029Z,68.27
2022-07-26T06:55:50.892Z,68.21
2022-07-26T06:57:53.687Z,67.87
2022-07-26T06:59:56.529Z,67.42
2022-07-26T07:02:00.675Z,66.66
2022-07-26T07:04:03.687Z,68.00
2022-07-26T07:06:06.805Z,66.80
2022-07-26T07:08:09.659Z,66.36
2022-07-26T07:10:15.607Z,67.30
2022-07-26T07:12:19.096Z,66.43
2022-07-26T07:14:22.055Z,66.52
2022-07-26T07:16:24.871Z,65.79
2022-07-26T07:18:27.727Z,64.59
2022-07-26T07:20:30.489Z,62.77
2022-07-26T07:22:33.539Z,62.29
2022-07-26T07:24:37.412Z,62.05
2022-07-26T07:26:42.617Z,62.59
2022-07-26T07:28:46.561Z,62.21
2022-07-26T07:30:52.684Z,61.44
2022-07-26T07:32:56.970Z,62.13
2022-07-26T07:35:00.989Z,62.26
2022-07-26T07:37:04.542Z,61.09
2022-07-26T07:39:15.563Z,60.29
2022-07-26T07:41:20.231Z,59.08
2022-07-26T07:43:24.346Z,59.01
2022-07-26T07:45:27.194Z,58.68
2022-07-26T07:47:30.029Z,57.47
2022-07-26T07:49:32.915Z,56.20
2022-07-26T07:51:36.161Z,55.96
2022-07-26T07:53:39.254Z,56.57
2022-07-26T07:55:46.302Z,56.67
2022-07-26T07:57:49.601Z,55.09
2022-07-26T07:59:53.763Z,55.39
2022-07-26T08:01:56.542Z,54.07
2022-07-26T08:03:59.393Z,53.50
2022-07-26T08:06:03.864Z,53.44
2022-07-26T08:08:08.961Z,53.07
2022-07-26T08:10:12.855Z,52.98
2022-07-26T08:12:17.335Z,52.57
2022-07-26T08:14:20.275Z,54.02
2022-07-26T08:16:24.658Z,54.37
2022-07-26T08:18:27.558Z,53.82
2022-07-26T08:20:31.278Z,54.08
2022-07-26T08:22:34.134Z,52.79
2022-07-26T08:24:36.987Z,52.32
2022-07-26T08:26:39.952Z,52.03
2022-07-26T08:28:47.932Z,51.31
2022-07-26T08:30:51.237Z,52.55
2022-07-26T08:32:55.416Z,51.62
2022-07-26T08:35:16.873Z,50.36
2022-07-26T08:37:20.983Z,51.53
2022-07-26T08:39:23.807Z,52.14
2022-07-26T08:41:26.697Z,51.68
2022-07-26T08:43:29.966Z,51.58
2022-07-26T08:45:36.029Z,52.21
2022-07-26T08:48:00.675Z,50.80
2022-07-26T08:50:06.686Z,51.99
2022-07-26T08:52:10.752Z,51.62
2022-07-26T08:54:16.297Z,51.20
2022-07-26T08:56:19.166Z,52.07
2022-07-26T08:58:22.130Z,50.98
2022-07-26T09:00:29.693Z,49.19
2022-07-26T09:02:41.708Z,48.99
2022-07-26T09:04:46.473Z,48.40
2022-07-26T09:06:58.951Z,47.19
2022-07-26T09:09:12.473Z,47.30
2022-07-26T09:11:33.041Z,46.60
2022-07-26T09:13:52.386Z,47.77
2022-07-26T09:16:10.174Z,48.37
2022-07-26T09:18:27.109Z,47.88
2022-07-26T09:20:32.052Z,47.76
2022-07-26T09:22:37.147Z,47.43
2022-07-26T09:24:42.579Z,46.93
2022-07-26T09:26:56.480Z,45.57
2022-07-26T09:29:08.168Z,44.28
2022-07-26T09:31:11.308Z,43.75
2022-07-26T09:33:14.186Z,43.55
2022-07-26T09:35:45.987Z,44.31
2022-07-26T09:37:44.086Z,45.74
2022-07-26T09:39:58.711Z,45.43
2022-07-26T09:42:27.565Z,43.69
2022-07-26T09:44:31.331Z,44.47
2022-07-26T09:46:35.628Z,43.74
2022-07-26T09:49:09.473Z,44.53
2022-07-26T09:51:02.404Z,43.98
2022-07-26T09:53:09.029Z,44.46
2022-07-26T09:55:13.303Z,44.04
2022-07-26T09:57:18.447Z,44.68
2022-07-26T09:59:23.347Z,43.47
2022-07-26T10:01:26.181Z,44.08
2022-07-26T10:03:31.060Z,43.03
2022-07-26T10:05:34.169Z,43.33
2022-07-26T10:07:38.188Z,43.33
2022-07-26T10:09:48.639Z,42.92
2022-07-26T10:11:56.240Z,42.70
2022-07-26T10:13:59.144Z,42.79
2022-07-26T10:16:02.918Z,41.30
2022-07-26T10:18:08.506Z,40.69
2022-07-26T10:20:19.223Z,38.74
2022-07-26T10:22:30.472Z,39.47
2022-07-26T10:24:34.616Z,39.21
2022-07-26T10:26:42.111Z,39.37
2022-07-26T10:28:46.212Z,39.08
2022-07-26T10:30:49.419Z,38.71
2022-07-26T10:33:00.389Z,39.45
2022-07-26T10:35:33.301Z,38.63
2022-07-26T10:37:36.169Z,38.60
2022-07-26T10:39:40.514Z,40.00
2022-07-26T10:41:47.002Z,40.06
2022-07-26T10:44:22.147Z,38.68
2022-07-26T10:46:28.176Z,38.50
2022-07-26T10:48:31.352Z,38.53
2022-07-26T10:50:34.847Z,38.24
2022-07-26T10:52:39.041Z,38.03
2022-07-26T10:55:08.838Z,38.20
2022-07-26T10:57:13.082Z,38.51
2022-07-26T10:59:32.902Z,38.71
2022-07-26T11:01:42.340Z,38.37
2022-07-26T11:03:45.656Z,37.16
2022-07-26T11:05:50.919Z,36.04
2022-07-26T11:08:04.961Z,36.61
2022-07-26T11:10:08.282Z,35.03
2022-07-26T11:12:17.963Z,34.04
2022-07-26T11:14:20.837Z,33.92
2022-07-26T11:16:25.050Z,34.65
2022-07-26T11:18:32.387Z,35.13
2022-07-26T11:20:35.244Z,35.63
2022-07-26T11:22:38.204Z,35.80
2022-07-26T11:24:41.678Z,35.92
2022-07-26T11:26:45.668Z,36.18
2022-07-26T11:28:55.594Z,35.99
2022-07-26T11:30:59.133Z,35.84
2022-07-26T11:33:02.889Z,36.74
2022-07-26T11:35:06.768Z,36.36
2022-07-26T11:37:09.626Z,35.93
2022-07-26T11:39:14.315Z,37.90
2022-07-26T11:41:20.633Z,37.19
2022-07-26T11:43:38.776Z,36.56
2022-07-26T11:45:43.140Z,35.01
2022-07-26T11:47:46.019Z,34.39
2022-07-26T11:49:59.700Z,34.13
2022-07-26T11:52:13.118Z,35.52
2022-07-26T11:54:15.993Z,34.67
2022-07-26T11:56:20.485Z,35.13
2022-07-26T11:58:23.368Z,35.34
2022-07-26T12:00:27.160Z,34.83
2022-07-26T12:02:35.391Z,33.54
2022-07-26T12:04:40.464Z,34.19
2022-07-26T12:06:43.461Z,34.01
2022-07-26T12:08:50.371Z,33.18
2022-07-26T12:10:55.795Z,33.01
2022-07-26T12:13:09.595Z,33.60
2022-07-26T12:15:13.512Z,33.39
2022-07-26T12:17:18.183Z,31.69
2022-07-26T12:19:27.751Z,31.64
2022-07-26T12:21:45.110Z,31.53
2022-07-26T12:23:51.122Z,31.86
2022-07-26T12:25:54.206Z,31.29
2022-07-26T12:27:57.569Z,31.22
2022-07-26T12:30:16.515Z,32.38
2022-07-26T12:32:21.870Z,31.06
2022-07-26T12:34:26.612Z,31.87
2022-07-26T12:36:30.337Z,32.08
2022-07-26T12:38:43.027Z,30.94
2022-07-26T12:40:45.845Z,30.41
2022-07-26T12:43:00.726Z,31.50
2022-07-26T12:45:08.512Z,30.42
2022-07-26T12:47:11.276Z,31.20
2022-07-26T12:49:14.232Z,31.04
2022-07-26T12:51:18.421Z,30.96
2022-07-26T12:53:21.243Z,32.03
2022-07-26T12:55:24.172Z,31.92
2022-07-26T12:57:27.734Z,32.19
2022-07-26T12:59:30.562Z,32.43
2022-07-26T13:01:33.915Z,33.81
2022-07-26T13:03:36.815Z,33.48
2022-07-26T13:05:39.791Z,33.43
2022-07-26T13:07:44.170Z,32.43
2022-07-26T13:09:48.347Z,30.90
2022-07-26T13:11:51.285Z,30.88
2022-07-26T13:13:54.593Z,31.51
2022-07-26T13:15:57.411Z,31.21
2022-07-26T13:18:00.635Z,32.04
2022-07-26T13:20:03.487Z,32.86
2022-07-26T13:22:07.623Z,31.82
2022-07-26T13:24:14.186Z,32.60
2022-07-26T13:26:19.503Z,33.53
2022-07-26T13:28:24.516Z,32.22
2022-07-26T13:30:27.461Z,32.21
2022-07-26T13:32:30.273Z,31.02
2022-07-26T13:34:35.252Z,32.43
2022-07-26T13:36:38.357Z,32.61
2022-07-26T13:38:42.703Z,33.50
2022-07-26T13:40:46.941Z,33.53
2022-07-26T13:42:50.930Z,33.78
2022-07-26T13:44:53.803Z,33.92
2022-07-26T13:46:56.701Z,33.50
2022-07-26T13:49:01.643Z,34.20
2022-07-26T13:51:04.882Z,34.15
2022-07-26T13:53:07.769Z,33.38
2022-07-26T13:55:10.759Z,33.05
2022-07-26T13:57:14.957Z,32.70
2022-07-26T13:59:18.571Z,32.86
2022-07-26T14:01:21.567Z,31.80
2022-07-26T14:03:44.296Z,31.83
2022-07-26T14:05:47.333Z,31.40
2022-07-26T14:07:50.231Z,30.54
2022-07-26T14:09:53.069Z,29.40
2022-07-26T14:11:55.924Z,29.10
2022-07-26T14:14:00.227Z,29.35
2022-07-26T14:16:03.148Z,30.21
2022-07-26T14:18:06.818Z,29.01
2022-07-26T14:20:10.648Z,30.28
2022-07-26T14:22:13.505Z,30.16
2022-07-26T14:24:16.540Z,29.99
2022-07-26T14:26:21.796Z,30.19
2022-07-26T14:28:24.669Z,29.83
2022-07-26T14:30:28.782Z,30.06
2022-07-26T14:32:31.624Z,28.36
2022-07-26T14:34:34.465Z,27.57
2022-07-26T14:36:37.394Z,29.32
2022-07-26T14:38:41.210Z,29.30
2022-07-26T14:40:44.107Z,28.85
2022-07-26T14:42:47.480Z,28.48
2022-07-26T14:44:50.317Z,30.18
2022-07-26T14:46:55.344Z,29.19
2022-07-26T14:48:58.196Z,28.90
2022-07-26T14:51:09.769Z,28.13
2022-07-26T14:53:13.410Z,27.38
2022-07-26T14:55:21.706Z,28.24
2022-07-26T14:57:27.745Z,27.94
2022-07-26T14:59:30.567Z,27.19
2022-07-26T15:01:33.538Z,27.09
2022-07-26T15:03:38.013Z,26.32
2022-07-26T15:05:41.504Z,26.03
2022-07-26T15:07:46.176Z,26.28
2022-07-26T15:09:49.073Z,27.51
2022-07-26T15:11:52.082Z,28.17
2022-07-26T15:13:54.950Z,28.53
2022-07-26T15:15:57.735Z,28.92
2022-07-26T15:18:00.729Z,28.74
2022-07-26T15:20:06.335Z,27.80
2022-07-26T15:22:09.708Z,27.61
2022-07-26T15:24:14.247Z,27.56
2022-07-26T15:26:17.537Z,28.23
2022-07-26T15:28:20.551Z,29.04
2022-07-26T15:30:23.876Z,28.08
2022-07-26T15:32:28.583Z,28.03
2022-07-26T15:34:31.407Z,28.59
2022-07-26T15:36:35.663Z,27.93
2022-07-26T15:38:40.080Z,26.39
2022-07-26T15:40:43.501Z,26.01
2022-07-26T15:42:47.292Z,24.21
2022-07-26T15:44:51.040Z,24.38
2022-07-26T15:46:54.254Z,24.39
2022-07-26T15:48:57.931Z,24.00
2022-07-26T15:51:01.726Z,24.84
2022-07-26T15:53:05.917Z,25.52
2022-07-26T15:55:09.922Z,25.39
2022-07-26T15:57:12.773Z,27.12
2022-07-26T15:59:15.598Z,27.88
2022-07-26T16:01:18.444Z,29.29
2022-07-26T16:03:23.509Z,28.74
2022-07-26T16:05:26.319Z,27.74
2022-07-26T16:07:29.220Z,26.63
2022-07-26T16:09:33.338Z,25.54
2022-07-26T16:11:36.147Z,25.69
2022-07-26T16:13:39.060Z,26.26
2022-07-26T16:15:42.065Z,24.61
2022-07-26T16:17:44.898Z,23.98
2022-07-26T16:19:47.744Z,23.96
2022-07-26T16:21:50.966Z,24.17
2022-07-26T16:23:53.770Z,24.25
2022-07-26T16:25:57.973Z,25.15
2022-07-26T16:28:00.934Z,23.76
2022-07-26T16:30:03.783Z,24.88
2022-07-26T16:32:08.963Z,24.68
2022-07-26T16:34:12.194Z,25.75
2022-07-26T16:36:15.439Z,27.28
2022-07-26T16:38:18.444Z,27.41
2022-07-26T16:40:23.534Z,27.50
2022-07-26T16:42:27.933Z,26.64
2022-07-26T16:44:30.755Z,25.07
2022-07-26T16:46:33.623Z,24.96
2022-07-26T16:48:36.582Z,24.48
2022-07-26T16:50:39.612Z,25.13
2022-07-26T16:52:42.499Z,23.97
2022-07-26T16:54:45.471Z,23.48
2022-07-26T16:56:48.530Z,23.49
2022-07-26T16:58:52.735Z,23.40
2022-07-26T17:00:55.654Z,23.78
2022-07-26T17:02:58.546Z,25.07
2022-07-26T17:05:01.502Z,24.67
2022-07-26T17:09:27.378Z,22.36
2022-07-26T17:11:30.171Z,23.78
2022-07-26T17:13:33.207Z,22.92
2022-07-26T17:15:37.520Z,23.89
2022-07-26T17:17:41.560Z,24.62
2022-07-26T17:19:46.751Z,24.50
2022-07-26T17:21:49.644Z,24.58
2022-07-26T17:23:53.276Z,23.93
2022-07-26T17:25:56.174Z,23.12
2022-07-26T17:27:59.058Z,22.25
2022-07-26T17:30:06.591Z,21.81
2022-07-26T17:32:11.571Z,21.80
2022-07-26T17:34:14.335Z,23.76
2022-07-26T17:36:21.922Z,23.05
2022-07-26T17:38:24.824Z,23.54
2022-07-26T17:40:31.575Z,23.65
2022-07-26T17:42:35.482Z,22.22
2022-07-26T17:44:38.555Z,23.81
2022-07-26T17:46:41.810Z,23.96
2022-07-26T17:48:47.209Z,23.83
2022-07-26T17:50:50.166Z,23.30
2022-07-26T17:52:53.254Z,24.12
2022-07-26T17:54:57.678Z,23.39
2022-07-26T17:57:00.577Z,22.21
2022-07-26T17:59:03.542Z,23.57
2022-07-26T18:01:06.494Z,23.07
2022-07-26T18:03:09.323Z,25.02
2022-07-26T18:05:13.786Z,25.92
2022-07-26T18:07:16.876Z,26.58
2022-07-26T18:09:19.705Z,26.15
2022-07-26T18:11:22.484Z,26.88
2022-07-26T18:13:25.845Z,27.73
2022-07-26T18:15:28.711Z,29.31
2022-07-26T18:17:31.480Z,30.91
2022-07-26T18:19:34.319Z,31.42
2022-07-26T18:21:38.563Z,32.72
2022-07-26T18:24:00.255Z,34.19
2022-07-26T18:26:04.893Z,34.82
2022-07-26T18:28:09.768Z,34.37
2022-07-26T18:30:13.286Z,35.02
2022-07-26T18:32:16.877Z,35.07
2022-07-26T18:34:20.101Z,35.79
2022-07-26T18:36:23.121Z,35.86
2022-07-26T18:38:27.800Z,35.09
2022-07-26T18:40:32.283Z,35.88
2022-07-26T18:42:36.161Z,36.20
2022-07-26T18:44:39.013Z,36.17
2022-07-26T18:46:41.844Z,36.48
2022-07-26T18:48:44.689Z,36.24
2022-07-26T18:50:47.537Z,37.37
2022-07-26T18:52:50.649Z,37.03
2022-07-26T18:54:55.034Z,37.17
2022-07-26T18:56:57.981Z,36.60
2022-07-26T18:59:00.806Z,37.20
2022-07-26T19:01:03.668Z,37.54
2022-07-26T19:03:06.630Z,37.70
2022-07-26T19:05:10.958Z,38.40
2022-07-26T19:07:13.763Z,39.20
2022-07-26T19:09:16.586Z,39.97
2022-07-26T19:11:20.803Z,39.81
2022-07-26T19:13:23.813Z,40.21
2022-07-26T19:15:26.705Z,40.00
2022-07-26T19:17:30.323Z,40.00
2022-07-26T19:19:35.810Z,39.98
2022-07-26T19:21:40.800Z,40.10
2022-07-26T19:23:43.657Z,40.31
2022-07-26T19:25:47.294Z,40.65
2022-07-26T19:27:51.539Z,39.38
2022-07-26T19:29:54.386Z,39.46
2022-07-26T19:31:57.265Z,39.03
2022-07-26T19:34:00.100Z,39.45
2022-07-26T19:36:02.988Z,39.20
2022-07-26T19:38:06.037Z,41.05
2022-07-26T19:40:09.905Z,40.97
2022-07-26T19:42:12.710Z,40.31
2022-07-26T19:44:17.181Z,41.12
2022-07-26T19:46:20.209Z,42.69
2022-07-26T19:48:23.034Z,43.90
2022-07-26T19:50:25.910Z,40.74
2022-07-26T19:52:35.368Z,38.88
2022-07-26T19:54:41.218Z,39.22
2022-07-26T19:56:44.398Z,40.06
2022-07-26T19:58:49.323Z,40.64
2022-07-26T20:00:53.452Z,40.68
2022-07-26T20:02:56.336Z,40.13
2022-07-26T20:04:59.122Z,39.37
2022-07-26T20:07:01.910Z,38.98
2022-07-26T20:09:05.422Z,41.65
2022-07-26T20:11:24.658Z,40.71
2022-07-26T20:13:27.826Z,42.48
2022-07-26T20:15:30.785Z,42.67
2022-07-26T20:17:48.734Z,41.98
2022-07-26T20:19:53.890Z,42.88
2022-07-26T20:22:05.456Z,43.73
2022-07-26T20:24:08.979Z,41.46
2022-07-26T20:26:13.293Z,41.86
2022-07-26T20:28:16.641Z,41.89
2022-07-26T20:30:19.713Z,42.57
2022-07-26T20:32:22.592Z,42.19
2022-07-26T20:34:26.976Z,42.72
2022-07-26T20:36:29.907Z,44.52
2022-07-26T20:38:32.788Z,44.48
2022-07-26T20:40:35.665Z,44.37
2022-07-26T20:42:41.881Z,43.49
2022-07-26T20:44:47.140Z,43.72
2022-07-26T20:46:51.613Z,45.26
2022-07-26T20:48:55.230Z,44.30
2022-07-26T20:50:59.453Z,45.66
2022-07-26T20:53:02.275Z,46.89
2022-07-26T20:55:05.909Z,45.46
2022-07-26T20:57:08.727Z,47.77
2022-07-26T20:59:11.759Z,47.12
2022-07-26T21:01:15.155Z,46.52
2022-07-26T21:03:18.286Z,46.53
2022-07-26T21:05:21.459Z,47.14
2022-07-26T21:07:58.639Z,48.40
2022-07-26T21:09:49.202Z,46.92
2022-07-26T21:11:52.179Z,49.16
2022-07-26T21:13:55.356Z,48.62
2022-07-26T21:15:58.243Z,48.78
2022-07-26T21:18:01.139Z,50.51
2022-07-26T21:20:04.236Z,50.53
2022-07-26T21:22:07.579Z,50.24
2022-07-26T21:24:12.513Z,50.06
2022-07-26T21:26:15.341Z,48.85
2022-07-26T21:28:18.259Z,49.59
2022-07-26T21:30:21.099Z,50.76
2022-07-26T21:32:26.112Z,48.10
2022-07-26T21:34:34.148Z,50.57
2022-07-26T21:36:40.214Z,51.35
2022-07-26T21:38:43.328Z,50.94
2022-07-26T21:40:47.907Z,51.70
2022-07-26T21:42:50.732Z,51.90
2022-07-26T21:44:53.587Z,53.80
2022-07-26T21:46:56.389Z,52.61
2022-07-26T21:48:59.303Z,51.13
2022-07-26T21:51:02.134Z,50.95
2022-07-26T21:53:05.075Z,49.86
2022-07-26T21:55:08.886Z,50.69
2022-07-26T21:57:13.485Z,52.66
2022-07-26T21:59:16.496Z,49.99
2022-07-26T22:01:19.386Z,51.63
2022-07-26T22:03:22.255Z,51.53
2022-07-26T22:05:38.785Z,53.05
2022-07-26T22:07:41.675Z,53.69
2022-07-26T22:09:44.508Z,52.16
2022-07-26T22:11:47.386Z,52.38
2022-07-26T22:13:51.861Z,53.01
2022-07-26T22:15:54.729Z,54.13
2022-07-26T22:18:00.026Z,52.86
2022-07-26T22:20:04.011Z,54.73
2022-07-26T22:22:06.856Z,56.39
2022-07-26T22:24:09.824Z,55.70
2022-07-26T22:26:12.642Z,55.37
2022-07-26T22:28:17.879Z,55.17
2022-07-26T22:30:24.356Z,55.26
2022-07-26T22:32:27.685Z,56.58
2022-07-26T22:34:30.500Z,55.37
2022-07-26T22:36:33.335Z,54.55
2022-07-26T22:38:36.318Z,54.74
2022-07-26T22:40:40.647Z,54.35
2022-07-26T22:42:44.591Z,55.69
2022-07-26T22:44:47.402Z,55.55
2022-07-26T22:46:51.536Z,54.76
2022-07-26T22:48:54.437Z,56.45
2022-07-26T22:50:57.242Z,57.68
2022-07-26T22:53:01.691Z,58.58
2022-07-26T22:55:05.987Z,56.31
2022-07-26T22:57:08.843Z,57.08
2022-07-26T22:59:11.926Z,58.81
2022-07-26T23:01:16.388Z,59.40
2022-07-26T23:03:21.680Z,57.30
2022-07-26T23:05:30.746Z,55.48
2022-07-26T23:07:48.055Z,53.91
2022-07-26T23:09:51.351Z,52.81
2022-07-26T23:11:54.130Z,52.26
2022-07-26T23:13:59.016Z,53.93
2022-07-26T23:16:02.344Z,53.87
2022-07-26T23:18:05.387Z,54.09
2022-07-26T23:20:11.623Z,52.37
2022-07-26T23:22:14.803Z,52.17
2022-07-26T23:24:17.769Z,52.85
2022-07-26T23:26:20.674Z,52.40
2022-07-26T23:28:36.029Z,51.09
2022-07-26T23:30:41.088Z,51.07
2022-07-26T23:32:43.964Z,55.38
2022-07-26T23:34:46.876Z,53.98
2022-07-26T23:36:51.147Z,56.67
2022-07-26T23:38:55.110Z,55.43
2022-07-26T23:40:58.077Z,53.12
2022-07-26T23:43:01.172Z,52.83
2022-07-26T23:45:04.550Z,54.09
2022-07-26T23:47:07.601Z,53.50
2022-07-26T23:49:10.883Z,52.26
2022-07-26T23:51:14.234Z,51.88
2022-07-26T23:53:18.470Z,50.93
2022-07-26T23:55:32.909Z,51.70
2022-07-26T23:57:38.734Z,50.63
2022-07-26T23:59:41.591Z,49.37
